Cummaquid, MA (02637)

10:25 AM EST on January 31, 2015 (GMT -0500)
Cape Air EDC Building | Change Station
CLOSE
Current Station
Personal Weather Station
Location: Hyannis, MA
Elevation: 49 ft
Nearby Weather Stations
Active Advisory: Winter Storm Watch, Wind Advisory

Elev 49 ft 41.67 °N, 70.29 °W | Updated 11 seconds ago

Blowing Snow
Blowing Snow
18.5 °F
Feels Like 2 °F
N
21.9
Wind Variable Wind from NW
Gusts 26.2 mph

Today
High -- | Low -- °F
--% Chance of Precip.
Yesterday
High -- | Low -- °F
Precip. -- in
6:54 AM 4:55 PM
Waxing Gibbous, 90% visible
Pressure 29.71 in
Visibility 7.0 miles
Clouds Overcast 3800 ft
Windchill 2 °F
Dew Point 2 °F
Humidity 47%
Rainfall 0.00 in
Snow Depth Not available.
UV 1 out of 12
Pollen .10 out of 12
Air Quality Not available.
Flu Activity Not available.
SPECI KHYA 311503Z 33018G32KT 7SM BLSN OVC038 M08/M14 A2971 RMK AO2 PK WND 31030/1501 SNE1457 P0000 T10781139

More Conditions Fewer Conditions

Pressure 29.71 in
Visibility 7.0 miles
Clouds Overcast 3800 ft
Windchill 2 °F
Dew Point 2 °F
Humidity 47%
Rainfall 0.00 in
Snow Depth Not available.
UV 1 out of 12
Pollen .10 out of 12
Air Quality Not available.
Flu Activity Not available.
SPECI KHYA 311503Z 33018G32KT 7SM BLSN OVC038 M08/M14 A2971 RMK AO2 PK WND 31030/1501 SNE1457 P0000 T10781139

More Conditions Fewer Conditions

10-Day Weather Forecast

Almanac

Astronomy

Jan. 31, 2015 Rise Set
Actual Time
Civil Twilight
Nautical Twilight
Astronomical Twilight
Moon
Length of Visible Light
Length of Day
Tomorrow will be .
, % of the Moon is Illuminated

Today's Extremes

State Highs State Lows

Community

WunderPhotos

Upload Photos

1,792,091 photos uploaded!

WunderBlogs® & News

Nearby

Air Quality

  Air Quality AQ Index Pollutant
Not available.

Snow Depth

Station Depth Elevation

Earthquake Activity

City Distance Mag. Time & Date
Minimum magnitude displayed is 2.5.

Coastal Water Temperatures

Place Temperature

Nearby Weather Stations